createdAt,value
2019-04-10T00:00:51.119Z,5.63
2019-04-10T00:01:49.776Z,5.52
2019-04-10T00:02:50.112Z,5.43
2019-04-10T00:03:50.400Z,5.38
2019-04-10T00:04:49.717Z,5.40
2019-04-10T00:05:50.019Z,5.37
2019-04-10T00:06:50.073Z,5.37
2019-04-10T00:07:50.030Z,5.27
2019-04-10T00:08:50.575Z,5.40
2019-04-10T00:09:49.660Z,5.30
2019-04-10T00:10:49.652Z,5.23
2019-04-10T00:11:49.679Z,5.23
2019-04-10T00:12:49.800Z,5.23
2019-04-10T00:13:49.627Z,5.19
2019-04-10T00:14:50.456Z,5.12
2019-04-10T00:15:50.710Z,5.20
2019-04-10T00:16:49.589Z,5.13
2019-04-10T00:17:49.611Z,5.10
2019-04-10T00:18:50.549Z,5.23
2019-04-10T00:19:49.560Z,5.23
2019-04-10T00:20:49.547Z,5.14
2019-04-10T00:21:49.536Z,5.16
2019-04-10T00:22:50.610Z,5.07
2019-04-10T00:23:49.519Z,5.12
2019-04-10T00:24:50.477Z,5.10
2019-04-10T00:25:49.491Z,5.09
2019-04-10T00:26:50.094Z,5.16
2019-04-10T00:27:50.600Z,5.04
2019-04-10T00:28:49.775Z,5.02
2019-04-10T00:29:49.451Z,4.89
2019-04-10T00:30:49.470Z,4.91
2019-04-10T00:31:49.431Z,4.92
2019-04-10T00:32:49.446Z,4.95
2019-04-10T00:33:49.412Z,4.84
2019-04-10T00:34:49.736Z,4.84
2019-04-10T00:35:49.870Z,4.79
2019-04-10T00:36:49.376Z,4.86
2019-04-10T00:37:49.395Z,4.72
2019-04-10T00:38:50.318Z,4.77
2019-04-10T00:39:49.350Z,4.72
2019-04-10T00:40:49.947Z,4.70
2019-04-10T00:41:49.391Z,4.65
2019-04-10T00:42:49.586Z,4.57
2019-04-10T00:43:49.314Z,4.58
2019-04-10T00:44:50.088Z,4.58
2019-04-10T00:45:49.436Z,4.58
2019-04-10T00:46:49.272Z,4.58
2019-04-10T00:47:49.287Z,4.67
2019-04-10T00:48:50.230Z,4.59
2019-04-10T00:49:50.282Z,4.55
2019-04-10T00:50:49.233Z,4.55
2019-04-10T00:51:49.990Z,4.51
2019-04-10T00:52:49.392Z,4.46
2019-04-10T00:53:49.773Z,4.52
2019-04-10T00:54:49.187Z,4.50
2019-04-10T00:55:50.206Z,4.44
2019-04-10T00:56:49.173Z,4.36
2019-04-10T00:57:49.801Z,4.42
2019-04-10T00:58:49.161Z,4.42
2019-04-10T00:59:49.142Z,4.33
2019-04-10T01:00:50.282Z,4.28
2019-04-10T01:01:49.137Z,4.37
2019-04-10T01:02:49.207Z,4.25
2019-04-10T01:03:50.729Z,4.28
2019-04-10T01:04:49.114Z,4.19
2019-04-10T01:05:49.229Z,4.22
2019-04-10T01:06:49.060Z,4.21
2019-04-10T01:07:49.075Z,4.12
2019-04-10T01:08:49.040Z,4.08
2019-04-10T01:09:49.905Z,4.08
2019-04-10T01:10:49.020Z,4.10
2019-04-10T01:11:49.750Z,4.12
2019-04-10T01:12:49.157Z,4.16
2019-04-10T01:13:50.124Z,4.15
2019-04-10T01:14:49.785Z,4.16
2019-04-10T01:15:49.091Z,4.21
2019-04-10T01:16:49.432Z,4.10
2019-04-10T01:17:48.978Z,4.12
2019-04-10T01:18:48.939Z,4.03
2019-04-10T01:19:48.936Z,4.14
2019-04-10T01:20:48.914Z,3.92
2019-04-10T01:21:48.906Z,3.96
2019-04-10T01:22:49.754Z,3.75
2019-04-10T01:23:49.125Z,3.90
2019-04-10T01:24:48.878Z,3.89
2019-04-10T01:25:48.875Z,3.88
2019-04-10T01:26:49.627Z,3.82
2019-04-10T01:27:49.955Z,3.72
2019-04-10T01:28:49.189Z,3.75
2019-04-10T01:29:49.599Z,3.82
2019-04-10T01:30:48.807Z,3.85
2019-04-10T01:31:48.795Z,3.76
2019-04-10T01:32:48.789Z,3.78
2019-04-10T01:33:49.245Z,3.68
2019-04-10T01:34:49.706Z,3.75
2019-04-10T01:35:48.851Z,3.70
2019-04-10T01:36:48.756Z,3.67
2019-04-10T01:37:54.761Z,3.62
2019-04-10T01:38:49.760Z,3.75
2019-04-10T01:39:48.728Z,3.65
2019-04-10T01:40:48.705Z,3.58
2019-04-10T01:41:48.691Z,3.65
2019-04-10T01:43:02.484Z,3.57
2019-04-10T01:43:49.698Z,3.53
2019-04-10T01:44:49.037Z,3.47
2019-04-10T01:45:49.509Z,3.52
2019-04-10T01:46:48.709Z,3.44
2019-04-10T01:47:48.632Z,3.44
2019-04-10T01:48:49.116Z,3.43
2019-04-10T01:49:48.616Z,3.49
2019-04-10T01:50:48.651Z,3.50
2019-04-10T01:51:49.692Z,3.46
2019-04-10T01:52:49.166Z,3.46
2019-04-10T01:53:48.591Z,3.43
2019-04-10T01:54:49.237Z,3.46
2019-04-10T01:55:49.280Z,3.58
2019-04-10T01:56:48.525Z,3.46
2019-04-10T01:57:48.544Z,3.58
2019-04-10T01:58:49.516Z,3.57
2019-04-10T01:59:48.509Z,3.49
2019-04-10T02:00:48.494Z,3.50
2019-04-10T02:01:48.478Z,3.30
2019-04-10T02:02:49.539Z,3.47
2019-04-10T02:03:48.484Z,3.46
2019-04-10T02:04:51.322Z,3.39
2019-04-10T02:05:49.183Z,3.42
2019-04-10T02:06:49.517Z,3.34
2019-04-10T02:07:59.426Z,3.33
2019-04-10T02:08:49.963Z,3.25
2019-04-10T02:09:48.397Z,3.21
2019-04-10T02:10:48.387Z,3.12
2019-04-10T02:11:48.378Z,3.07
2019-04-10T02:12:48.368Z,3.10
2019-04-10T02:13:48.379Z,3.03
2019-04-10T02:14:48.872Z,3.02
2019-04-10T02:15:48.332Z,2.95
2019-04-10T02:16:49.350Z,2.91
2019-04-10T02:17:48.675Z,2.91
2019-04-10T02:18:48.331Z,2.81
2019-04-10T02:19:48.291Z,2.82
2019-04-10T02:20:49.346Z,2.71
2019-04-10T02:21:48.269Z,2.79
2019-04-10T02:22:48.259Z,2.77
2019-04-10T02:23:48.292Z,2.61
2019-04-10T02:24:49.312Z,2.64
2019-04-10T02:25:49.307Z,2.61
2019-04-10T02:26:48.216Z,2.51
2019-04-10T02:27:48.772Z,2.49
2019-04-10T02:28:48.196Z,2.55
2019-04-10T02:29:48.210Z,2.56
2019-04-10T02:30:48.177Z,2.41
2019-04-10T02:31:48.543Z,2.61
2019-04-10T02:32:50.361Z,2.53
2019-04-10T02:33:49.651Z,2.56
2019-04-10T02:34:49.176Z,2.56
2019-04-10T02:35:48.383Z,2.49
2019-04-10T02:36:48.827Z,2.55
2019-04-10T02:37:52.729Z,2.52
2019-04-10T02:39:01.954Z,2.45
2019-04-10T02:39:52.860Z,2.38
2019-04-10T02:40:50.075Z,2.35
2019-04-10T02:41:48.056Z,2.40
2019-04-10T02:42:49.292Z,2.40
2019-04-10T02:43:48.074Z,2.37
2019-04-10T02:44:48.457Z,2.22
2019-04-10T02:45:49.343Z,2.30
2019-04-10T02:46:49.766Z,2.30
2019-04-10T02:47:48.001Z,2.19
2019-04-10T02:48:47.989Z,2.20
2019-04-10T02:49:49.289Z,2.20
2019-04-10T02:50:49.313Z,2.16
2019-04-10T02:51:49.754Z,2.19
2019-04-10T02:52:50.321Z,2.26
2019-04-10T02:53:48.167Z,2.33
2019-04-10T02:54:49.069Z,2.30
2019-04-10T02:55:49.340Z,2.19
2019-04-10T02:56:49.529Z,2.28
2019-04-10T02:57:47.895Z,2.27
2019-04-10T02:58:49.201Z,2.20
2019-04-10T02:59:47.969Z,2.20
2019-04-10T03:00:48.762Z,2.15
2019-04-10T03:01:49.600Z,2.26
2019-04-10T03:02:49.523Z,2.20
2019-04-10T03:03:47.829Z,2.16
2019-04-10T03:04:49.092Z,2.04
2019-04-10T03:05:48.801Z,2.15
2019-04-10T03:06:47.950Z,2.09
2019-04-10T03:07:48.305Z,2.15
2019-04-10T03:09:02.400Z,2.02
2019-04-10T03:10:00.515Z,2.06
2019-04-10T03:10:53.368Z,2.08
2019-04-10T03:11:49.839Z,2.06
2019-04-10T03:12:48.427Z,2.08
2019-04-10T03:13:48.975Z,2.06
2019-04-10T03:14:49.385Z,2.08
2019-04-10T03:15:48.203Z,2.01
2019-04-10T03:16:47.927Z,1.94
2019-04-10T03:17:48.343Z,2.01
2019-04-10T03:18:47.670Z,2.04
2019-04-10T03:19:47.824Z,2.04
2019-04-10T03:20:48.745Z,1.91
2019-04-10T03:21:47.640Z,1.94
2019-04-10T03:22:47.626Z,1.90
2019-04-10T03:23:47.626Z,1.93
2019-04-10T03:24:48.510Z,1.82
2019-04-10T03:25:47.606Z,1.91
2019-04-10T03:26:47.886Z,1.79
2019-04-10T03:27:47.581Z,1.82
2019-04-10T03:28:47.567Z,1.76
2019-04-10T03:29:48.463Z,1.83
2019-04-10T03:30:49.365Z,1.73
2019-04-10T03:31:48.222Z,1.71
2019-04-10T03:32:53.774Z,1.79
2019-04-10T03:33:51.783Z,1.75
2019-04-10T03:34:48.499Z,1.76
2019-04-10T03:35:48.107Z,1.73
2019-04-10T03:36:47.629Z,1.78
2019-04-10T03:37:48.646Z,1.79
2019-04-10T03:38:57.763Z,1.72
2019-04-10T03:39:48.965Z,1.75
2019-04-10T03:40:48.035Z,1.72
2019-04-10T03:41:48.389Z,1.57
2019-04-10T03:42:47.483Z,1.50
2019-04-10T03:43:47.425Z,1.55
2019-04-10T03:44:47.404Z,1.52
2019-04-10T03:45:47.411Z,1.50
2019-04-10T03:46:47.379Z,1.50
2019-04-10T03:47:47.527Z,1.47
2019-04-10T03:48:47.418Z,1.44
2019-04-10T03:49:47.344Z,1.44
2019-04-10T03:50:47.938Z,1.44
2019-04-10T03:51:47.324Z,1.47
2019-04-10T03:52:47.574Z,1.52
2019-04-10T03:53:47.302Z,1.47
2019-04-10T03:54:48.153Z,1.36
2019-04-10T03:55:47.371Z,1.43
2019-04-10T03:56:47.883Z,1.36
2019-04-10T03:57:47.265Z,1.29
2019-04-10T03:58:47.544Z,1.42
2019-04-10T03:59:47.590Z,1.37
2019-04-10T04:00:47.262Z,1.29
2019-04-10T04:01:47.294Z,1.34
2019-04-10T04:02:48.144Z,1.37
2019-04-10T04:03:47.195Z,1.34
2019-04-10T04:04:48.040Z,1.29
2019-04-10T04:05:47.206Z,1.26
2019-04-10T04:06:48.153Z,1.28
2019-04-10T04:07:47.157Z,1.40
2019-04-10T04:08:49.027Z,1.33
2019-04-10T04:09:48.204Z,1.26
2019-04-10T04:10:47.255Z,1.28
2019-04-10T04:11:47.941Z,1.26
2019-04-10T04:12:47.102Z,1.24
2019-04-10T04:13:47.975Z,1.21
2019-04-10T04:14:47.113Z,1.25
2019-04-10T04:15:47.175Z,1.19
2019-04-10T04:16:47.135Z,1.21
2019-04-10T04:17:47.051Z,1.22
2019-04-10T04:18:47.041Z,1.22
2019-04-10T04:19:47.030Z,1.19
2019-04-10T04:20:47.553Z,1.15
2019-04-10T04:21:48.071Z,1.22
2019-04-10T04:22:47.529Z,1.21
2019-04-10T04:23:46.987Z,1.21
2019-04-10T04:24:46.995Z,1.21
2019-04-10T04:25:46.994Z,1.24
2019-04-10T04:26:47.016Z,1.18
2019-04-10T04:27:46.963Z,1.16
2019-04-10T04:28:46.936Z,1.15
2019-04-10T04:29:47.551Z,1.22
2019-04-10T04:30:47.083Z,1.21
2019-04-10T04:31:46.905Z,1.16
2019-04-10T04:32:46.891Z,1.24
2019-04-10T04:33:46.990Z,1.33
2019-04-10T04:34:47.437Z,1.25
2019-04-10T04:35:47.416Z,1.24
2019-04-10T04:36:48.863Z,1.21
2019-04-10T04:37:46.845Z,1.21
2019-04-10T04:38:46.826Z,1.19
2019-04-10T04:39:47.535Z,1.16
2019-04-10T04:40:46.967Z,1.12
2019-04-10T04:41:47.810Z,1.18
2019-04-10T04:42:47.141Z,1.07
2019-04-10T04:43:47.666Z,1.12
2019-04-10T04:44:47.766Z,1.03
2019-04-10T04:45:46.783Z,1.22
2019-04-10T04:46:46.888Z,1.16
2019-04-10T04:47:46.754Z,1.21
2019-04-10T04:48:47.434Z,1.08
2019-04-10T04:49:46.847Z,1.15
2019-04-10T04:50:47.015Z,1.01
2019-04-10T04:51:46.747Z,1.03
2019-04-10T04:52:46.787Z,1.06
2019-04-10T04:53:46.724Z,1.14
2019-04-10T04:54:47.696Z,1.07
2019-04-10T04:55:47.041Z,1.01
2019-04-10T04:56:46.635Z,1.04
2019-04-10T04:57:47.112Z,1.04
2019-04-10T04:58:47.583Z,1.14
2019-04-10T04:59:46.604Z,1.12
2019-04-10T05:00:46.633Z,1.04
2019-04-10T05:01:46.848Z,1.06
2019-04-10T05:02:47.038Z,1.07
2019-04-10T05:03:46.562Z,1.10
2019-04-10T05:04:46.553Z,1.03
2019-04-10T05:05:46.570Z,1.10
2019-04-10T05:06:46.535Z,1.19
2019-04-10T05:07:56.381Z,1.15
2019-04-10T05:08:48.558Z,1.15
2019-04-10T05:09:46.500Z,1.08
2019-04-10T05:10:47.441Z,1.16
2019-04-10T05:11:46.831Z,1.32
2019-04-10T05:12:46.462Z,1.26
2019-04-10T05:13:46.798Z,1.32
2019-04-10T05:14:46.446Z,1.29
2019-04-10T05:15:46.455Z,1.33
2019-04-10T05:16:46.421Z,1.29
2019-04-10T05:17:47.075Z,1.34
2019-04-10T05:18:46.406Z,1.40
2019-04-10T05:19:46.856Z,1.42
2019-04-10T05:20:50.268Z,1.43
2019-04-10T05:21:46.368Z,1.47
2019-04-10T05:22:46.354Z,1.43
2019-04-10T05:23:47.008Z,1.55
2019-04-10T05:24:46.739Z,1.65
2019-04-10T05:25:46.348Z,1.62
2019-04-10T05:26:46.952Z,1.80
2019-04-10T05:27:46.923Z,2.10
2019-04-10T05:28:46.675Z,2.70
2019-04-10T05:29:47.148Z,3.07
2019-04-10T05:30:46.330Z,3.49
2019-04-10T05:31:46.795Z,3.64
2019-04-10T05:32:57.720Z,3.82
2019-04-10T05:33:47.175Z,3.96
2019-04-10T05:34:46.687Z,4.10
2019-04-10T05:35:46.250Z,4.26
2019-04-10T05:36:47.002Z,4.42
2019-04-10T05:37:46.215Z,4.59
2019-04-10T05:38:46.190Z,4.83
2019-04-10T05:39:50.628Z,4.75
2019-04-10T05:40:47.195Z,4.70
2019-04-10T05:41:47.094Z,4.98
2019-04-10T05:42:47.183Z,4.92
2019-04-10T05:43:46.803Z,5.09
2019-04-10T05:44:46.129Z,5.10
2019-04-10T05:45:46.499Z,5.09
2019-04-10T05:46:46.541Z,4.89
2019-04-10T05:47:46.593Z,4.88
2019-04-10T05:48:46.249Z,4.92
2019-04-10T05:49:47.114Z,4.75
2019-04-10T05:50:54.914Z,4.98
2019-04-10T05:51:47.922Z,5.28
2019-04-10T05:52:46.052Z,5.49
2019-04-10T05:53:47.012Z,5.25
2019-04-10T05:54:47.209Z,5.49
2019-04-10T05:55:47.025Z,5.68
2019-04-10T05:56:46.972Z,5.49
2019-04-10T05:57:45.988Z,5.75
2019-04-10T05:58:46.912Z,5.40
2019-04-10T05:59:45.995Z,5.55
2019-04-10T06:00:47.075Z,5.68
2019-04-10T06:01:45.952Z,5.81
2019-04-10T06:02:46.051Z,5.73
2019-04-10T06:03:47.136Z,5.78
2019-04-10T06:04:45.921Z,6.04
2019-04-10T06:05:46.534Z,6.25
2019-04-10T06:06:46.482Z,6.35
2019-04-10T06:07:45.886Z,6.29
2019-04-10T06:08:46.976Z,6.48
2019-04-10T06:09:54.070Z,6.51
2019-04-10T06:10:47.804Z,6.40
2019-04-10T06:11:47.240Z,6.19
2019-04-10T06:12:46.733Z,6.35
2019-04-10T06:13:45.902Z,6.54
2019-04-10T06:14:46.324Z,6.69
2019-04-10T06:15:45.824Z,6.58
2019-04-10T06:16:45.796Z,6.30
2019-04-10T06:17:46.829Z,6.29
2019-04-10T06:18:45.801Z,6.11
2019-04-10T06:19:46.798Z,6.36
2019-04-10T06:20:45.779Z,7.07
2019-04-10T06:21:46.223Z,7.45
2019-04-10T06:22:45.735Z,7.41
2019-04-10T06:23:45.715Z,7.53
2019-04-10T06:24:46.759Z,7.22
2019-04-10T06:25:45.883Z,6.81
2019-04-10T06:26:45.957Z,6.83
2019-04-10T06:27:45.677Z,6.77
2019-04-10T06:28:46.509Z,6.51
2019-04-10T06:29:46.266Z,6.65
2019-04-10T06:30:45.692Z,6.98
2019-04-10T06:31:45.633Z,7.45
2019-04-10T06:32:45.621Z,7.55
2019-04-10T06:33:46.431Z,7.08
2019-04-10T06:34:46.048Z,7.66
2019-04-10T06:35:46.829Z,7.38
2019-04-10T06:36:45.904Z,6.97
2019-04-10T06:37:46.399Z,6.91
2019-04-10T06:38:45.559Z,7.17
2019-04-10T06:39:46.419Z,7.59
2019-04-10T06:40:46.089Z,7.96
2019-04-10T06:41:46.662Z,7.74
2019-04-10T06:42:51.638Z,7.82
2019-04-10T06:43:47.463Z,8.14
2019-04-10T06:44:46.048Z,7.93
2019-04-10T06:45:46.166Z,7.60
2019-04-10T06:46:46.505Z,7.53
2019-04-10T06:47:46.546Z,7.52
2019-04-10T06:48:45.450Z,7.78
2019-04-10T06:49:45.688Z,7.87
2019-04-10T06:50:45.979Z,7.90
2019-04-10T06:51:45.447Z,8.53
2019-04-10T06:52:45.413Z,8.47
2019-04-10T06:53:45.400Z,8.47
2019-04-10T06:54:45.390Z,8.62
2019-04-10T06:55:45.379Z,8.57
2019-04-10T06:56:47.920Z,8.79
2019-04-10T06:57:49.166Z,8.73
2019-04-10T06:58:46.352Z,8.76
2019-04-10T06:59:46.102Z,8.72
2019-04-10T07:00:49.740Z,8.73
2019-04-10T07:01:51.417Z,8.94
2019-04-10T07:02:46.377Z,8.88
2019-04-10T07:03:54.587Z,8.62
2019-04-10T07:04:53.083Z,8.58
2019-04-10T07:06:01.348Z,8.76
2019-04-10T07:06:57.936Z,9.02
2019-04-10T07:07:51.880Z,8.97
2019-04-10T07:08:48.655Z,8.86
2019-04-10T07:09:45.434Z,9.15
2019-04-10T07:10:52.063Z,9.27
2019-04-10T07:11:47.915Z,9.45
2019-04-10T07:12:46.200Z,9.88
2019-04-10T07:13:45.186Z,10.39
2019-04-10T07:14:48.305Z,10.73
2019-04-10T07:15:46.928Z,10.56
2019-04-10T07:16:45.346Z,10.65
2019-04-10T07:17:45.143Z,10.86
2019-04-10T07:18:48.571Z,10.32
2019-04-10T07:19:45.997Z,10.74
2019-04-10T07:20:46.159Z,11.07
2019-04-10T07:21:45.126Z,10.68
2019-04-10T07:22:46.862Z,10.88
2019-04-10T07:23:45.080Z,10.21
2019-04-10T07:24:46.123Z,9.97
2019-04-10T07:25:46.898Z,9.78
2019-04-10T07:26:47.604Z,9.91
2019-04-10T07:27:45.916Z,9.85
2019-04-10T07:28:47.215Z,10.34
2019-04-10T07:29:45.020Z,10.24
2019-04-10T07:30:45.672Z,10.32
2019-04-10T07:31:45.022Z,10.40
2019-04-10T07:32:48.632Z,10.34
2019-04-10T07:33:48.896Z,10.66
2019-04-10T07:34:46.731Z,10.70
2019-04-10T07:35:44.953Z,10.68
2019-04-10T07:36:46.331Z,10.89
2019-04-10T07:37:44.934Z,11.06
2019-04-10T07:38:44.924Z,11.10
2019-04-10T07:39:45.122Z,11.61
2019-04-10T07:40:45.017Z,12.37
2019-04-10T07:41:45.267Z,11.90
2019-04-10T07:42:44.883Z,12.09
2019-04-10T07:43:44.870Z,11.82
2019-04-10T07:44:44.857Z,12.31
2019-04-10T07:45:44.855Z,11.71
2019-04-10T07:46:44.865Z,11.97
2019-04-10T07:47:44.829Z,12.48
2019-04-10T07:48:45.556Z,12.26
2019-04-10T07:49:44.804Z,12.09
2019-04-10T07:50:46.942Z,12.39
2019-04-10T07:51:47.248Z,12.57
2019-04-10T07:52:45.846Z,12.48
2019-04-10T07:53:44.778Z,13.17
2019-04-10T07:54:45.153Z,13.09
2019-04-10T07:55:57.539Z,13.69
2019-04-10T07:56:45.773Z,13.14
2019-04-10T07:57:47.313Z,12.82
2019-04-10T07:58:44.709Z,12.92
2019-04-10T07:59:45.328Z,13.32
2019-04-10T08:00:44.906Z,13.03
2019-04-10T08:01:44.701Z,11.87
2019-04-10T08:02:44.845Z,12.67
2019-04-10T08:03:46.434Z,12.27
2019-04-10T08:04:45.332Z,12.34
2019-04-10T08:05:44.634Z,12.45
2019-04-10T08:06:44.757Z,12.89
2019-04-10T08:07:45.250Z,13.15
2019-04-10T08:08:44.828Z,13.36
2019-04-10T08:09:44.593Z,13.58
2019-04-10T08:10:45.100Z,13.73
2019-04-10T08:11:44.860Z,14.25
2019-04-10T08:12:50.038Z,14.07
2019-04-10T08:13:45.551Z,14.16
2019-04-10T08:14:44.545Z,13.59
2019-04-10T08:15:45.380Z,13.54
2019-04-10T08:16:45.537Z,13.84
2019-04-10T08:17:44.584Z,13.58
2019-04-10T08:18:45.631Z,13.56
2019-04-10T08:19:45.290Z,13.59
2019-04-10T08:20:44.625Z,14.06
2019-04-10T08:21:44.489Z,14.37
2019-04-10T08:22:44.882Z,14.39
2019-04-10T08:23:44.658Z,14.64
2019-04-10T08:24:46.954Z,14.24
2019-04-10T08:25:44.422Z,14.31
2019-04-10T08:26:45.111Z,14.50
2019-04-10T08:27:44.400Z,14.80
2019-04-10T08:28:45.369Z,14.06
2019-04-10T08:29:44.380Z,13.43
2019-04-10T08:30:44.367Z,14.02
2019-04-10T08:31:44.379Z,13.58
2019-04-10T08:32:53.511Z,13.74
2019-04-10T08:33:46.191Z,14.95
2019-04-10T08:34:44.333Z,14.34
2019-04-10T08:35:45.441Z,14.34
2019-04-10T08:36:44.327Z,14.07
2019-04-10T08:37:45.272Z,13.70
2019-04-10T08:38:44.566Z,14.25
2019-04-10T08:39:47.315Z,14.62
2019-04-10T08:40:44.267Z,14.69
2019-04-10T08:41:44.279Z,14.61
2019-04-10T08:42:46.044Z,14.68
2019-04-10T08:43:44.232Z,14.80
2019-04-10T08:44:44.543Z,15.06
2019-04-10T08:45:48.667Z,13.52
2019-04-10T08:46:46.180Z,13.32
2019-04-10T08:47:44.292Z,13.51
2019-04-10T08:48:44.177Z,14.61
2019-04-10T08:49:45.260Z,14.95
2019-04-10T08:50:44.156Z,14.98
2019-04-10T08:51:44.168Z,14.61
2019-04-10T08:52:44.527Z,14.31
2019-04-10T08:53:44.591Z,14.02
2019-04-10T08:54:44.635Z,12.93
2019-04-10T08:55:44.142Z,12.52
2019-04-10T08:56:44.915Z,13.09
2019-04-10T08:57:44.080Z,14.10
2019-04-10T08:58:44.071Z,13.89
2019-04-10T08:59:45.325Z,14.56
2019-04-10T09:00:44.854Z,15.21
2019-04-10T09:01:45.172Z,14.93
2019-04-10T09:02:44.442Z,14.56
2019-04-10T09:03:44.018Z,15.02
2019-04-10T09:04:44.700Z,14.67
2019-04-10T09:05:44.895Z,12.82
2019-04-10T09:06:44.021Z,12.97
2019-04-10T09:07:44.278Z,13.21
2019-04-10T09:08:43.963Z,12.34
2019-04-10T09:09:43.956Z,13.09
2019-04-10T09:10:44.795Z,13.43
2019-04-10T09:11:44.893Z,14.20
2019-04-10T09:12:44.923Z,14.68
2019-04-10T09:13:44.428Z,15.42
2019-04-10T09:14:43.911Z,15.38
2019-04-10T09:15:43.892Z,14.67
2019-04-10T09:16:44.833Z,13.62
2019-04-10T09:17:43.885Z,13.21
2019-04-10T09:18:43.859Z,13.55
2019-04-10T09:19:44.362Z,14.46
2019-04-10T09:20:43.839Z,15.24
2019-04-10T09:21:43.854Z,15.68
2019-04-10T09:23:08.539Z,16.04
2019-04-10T09:23:51.756Z,16.42
2019-04-10T09:24:44.796Z,16.77
2019-04-10T09:25:43.824Z,16.09
2019-04-10T09:26:44.532Z,15.28
2019-04-10T09:27:44.222Z,15.17
2019-04-10T09:28:43.756Z,14.42
2019-04-10T09:29:44.530Z,15.01
2019-04-10T09:30:44.826Z,15.92
2019-04-10T09:31:43.999Z,15.20
2019-04-10T09:32:44.403Z,14.69
2019-04-10T09:33:43.705Z,15.01
2019-04-10T09:34:45.616Z,15.39
2019-04-10T09:35:44.692Z,15.43
2019-04-10T09:36:43.795Z,15.78
2019-04-10T09:37:43.668Z,15.99
2019-04-10T09:38:44.120Z,15.38
2019-04-10T09:39:43.645Z,15.03
2019-04-10T09:40:44.649Z,14.74
2019-04-10T09:41:43.937Z,15.31
2019-04-10T09:42:43.845Z,15.39
2019-04-10T09:43:43.604Z,15.63
2019-04-10T09:44:44.385Z,14.64
2019-04-10T09:45:43.794Z,15.08
2019-04-10T09:46:43.596Z,15.52
2019-04-10T09:47:43.892Z,15.02
2019-04-10T09:48:44.258Z,15.75
2019-04-10T09:49:46.233Z,15.86
2019-04-10T09:50:43.903Z,16.34
2019-04-10T09:51:43.541Z,16.26
2019-04-10T09:52:44.050Z,16.07
2019-04-10T09:53:43.495Z,15.99
2019-04-10T09:54:43.638Z,15.27
2019-04-10T09:55:43.478Z,15.78
2019-04-10T09:56:44.210Z,15.27
2019-04-10T09:57:43.452Z,13.80
2019-04-10T09:58:43.446Z,14.32
2019-04-10T09:59:43.435Z,15.51
2019-04-10T10:00:43.793Z,14.37
2019-04-10T10:01:44.470Z,14.28
2019-04-10T10:02:43.401Z,14.46
2019-04-10T10:03:44.419Z,14.61
2019-04-10T10:04:43.872Z,14.56
2019-04-10T10:05:44.528Z,15.09
2019-04-10T10:06:43.385Z,14.62
2019-04-10T10:07:43.351Z,14.94
2019-04-10T10:08:43.661Z,15.05
2019-04-10T10:09:43.325Z,13.74
2019-04-10T10:10:43.322Z,13.56
2019-04-10T10:11:43.331Z,13.73
2019-04-10T10:12:43.300Z,14.90
2019-04-10T10:13:43.287Z,15.75
2019-04-10T10:14:44.283Z,14.53
2019-04-10T10:15:43.265Z,13.51
2019-04-10T10:16:44.206Z,13.27
2019-04-10T10:17:43.241Z,13.02
2019-04-10T10:18:43.662Z,13.46
2019-04-10T10:19:43.218Z,13.69
2019-04-10T10:20:43.960Z,12.93
2019-04-10T10:21:43.229Z,12.27
2019-04-10T10:22:43.293Z,11.96
2019-04-10T10:23:43.679Z,11.86
2019-04-10T10:24:43.170Z,13.24
2019-04-10T10:25:43.659Z,13.98
2019-04-10T10:26:45.015Z,14.09
2019-04-10T10:27:43.140Z,14.61
2019-04-10T10:28:43.125Z,15.85
2019-04-10T10:29:44.093Z,16.44
2019-04-10T10:30:43.961Z,16.07
2019-04-10T10:31:43.125Z,15.31
2019-04-10T10:32:43.781Z,15.19
2019-04-10T10:33:43.075Z,15.17
2019-04-10T10:34:43.065Z,15.31
2019-04-10T10:35:43.222Z,15.93
2019-04-10T10:36:46.207Z,14.47
2019-04-10T10:37:43.034Z,13.11
2019-04-10T10:38:43.373Z,12.69
2019-04-10T10:39:43.138Z,12.23
2019-04-10T10:40:43.644Z,13.06
2019-04-10T10:41:43.028Z,14.56
2019-04-10T10:42:43.523Z,13.84
2019-04-10T10:43:42.966Z,14.99
2019-04-10T10:44:42.956Z,14.42
2019-04-10T10:45:43.011Z,14.65
2019-04-10T10:46:43.934Z,14.80
2019-04-10T10:47:42.958Z,15.41
2019-04-10T10:48:44.091Z,15.39
2019-04-10T10:49:42.904Z,16.22
2019-04-10T10:50:43.590Z,15.78
2019-04-10T10:51:42.890Z,15.56
2019-04-10T10:52:43.815Z,15.75
2019-04-10T10:53:42.885Z,15.57
2019-04-10T10:54:43.253Z,16.06
2019-04-10T10:55:42.843Z,16.44
2019-04-10T10:56:42.833Z,16.12
2019-04-10T10:57:43.582Z,16.75
2019-04-10T10:58:43.885Z,15.76
2019-04-10T10:59:43.859Z,15.68
2019-04-10T11:00:43.170Z,16.00
2019-04-10T11:01:42.784Z,17.06
2019-04-10T11:02:43.646Z,17.40
2019-04-10T11:03:42.764Z,17.22
2019-04-10T11:04:43.350Z,16.33
2019-04-10T11:05:42.742Z,15.93
2019-04-10T11:06:51.439Z,14.68
2019-04-10T11:07:43.750Z,13.51
2019-04-10T11:08:43.817Z,13.33
2019-04-10T11:09:42.696Z,13.99
2019-04-10T11:10:43.236Z,14.99
2019-04-10T11:11:42.679Z,15.17
2019-04-10T11:12:42.700Z,16.04
2019-04-10T11:13:43.196Z,15.75
2019-04-10T11:14:43.664Z,15.39
2019-04-10T11:15:45.525Z,15.20
2019-04-10T11:16:42.627Z,15.76
2019-04-10T11:17:42.639Z,16.27
2019-04-10T11:18:42.611Z,16.33
2019-04-10T11:19:43.435Z,16.07
2019-04-10T11:20:43.913Z,16.40
2019-04-10T11:21:42.970Z,17.36
2019-04-10T11:22:42.594Z,16.01
2019-04-10T11:23:42.559Z,15.52
2019-04-10T11:24:43.430Z,15.70
2019-04-10T11:25:42.538Z,16.25
2019-04-10T11:26:42.769Z,16.86
2019-04-10T11:27:42.577Z,15.96
2019-04-10T11:28:43.231Z,15.99
2019-04-10T11:29:42.699Z,16.90
2019-04-10T11:30:42.623Z,16.56
2019-04-10T11:31:42.478Z,16.07
2019-04-10T11:32:52.498Z,15.56
2019-04-10T11:33:43.855Z,15.89
2019-04-10T11:34:43.505Z,16.53
2019-04-10T11:35:43.951Z,16.78
2019-04-10T11:36:42.933Z,16.81
2019-04-10T11:37:46.867Z,17.07
2019-04-10T11:38:44.935Z,15.92
2019-04-10T11:39:43.889Z,14.75
2019-04-10T11:40:42.407Z,14.61
2019-04-10T11:41:43.373Z,14.52
2019-04-10T11:42:42.915Z,15.86
2019-04-10T11:43:45.024Z,16.40
2019-04-10T11:44:45.299Z,17.35
2019-04-10T11:45:46.538Z,17.20
2019-04-10T11:46:43.894Z,16.49
2019-04-10T11:47:42.594Z,15.86
2019-04-10T11:48:45.489Z,15.30
2019-04-10T11:49:44.391Z,16.00
2019-04-10T11:50:44.042Z,15.70
2019-04-10T11:51:45.302Z,15.02
2019-04-10T11:52:49.321Z,14.16
2019-04-10T11:53:45.387Z,13.56
2019-04-10T11:54:46.002Z,13.49
2019-04-10T11:56:45.720Z,14.99
2019-04-10T11:57:45.937Z,15.56
2019-04-10T11:58:49.509Z,16.07
2019-04-10T11:59:44.852Z,15.93
2019-04-10T12:01:44.829Z,17.11
2019-04-10T12:02:45.440Z,17.07
2019-04-10T12:03:48.223Z,17.22
2019-04-10T12:04:50.350Z,17.13
2019-04-10T12:05:43.761Z,16.14
2019-04-10T12:06:43.151Z,14.94
2019-04-10T12:09:08.366Z,15.30
2019-04-10T12:11:43.094Z,15.74
2019-04-10T12:12:42.099Z,15.51
2019-04-10T12:13:42.729Z,14.75
2019-04-10T12:14:42.064Z,14.24
2019-04-10T12:15:43.063Z,13.89
2019-04-10T12:16:42.129Z,13.51
2019-04-10T12:17:43.090Z,12.79
2019-04-10T12:18:42.542Z,12.70
2019-04-10T12:19:42.481Z,12.34
2019-04-10T12:20:43.081Z,12.49
2019-04-10T12:21:42.146Z,13.04
2019-04-10T12:22:41.998Z,14.53
2019-04-10T12:23:42.967Z,15.35
2019-04-10T12:24:42.614Z,15.57
2019-04-10T12:25:42.891Z,15.46
2019-04-10T12:26:42.340Z,15.88
2019-04-10T12:27:42.096Z,16.71
2019-04-10T12:28:42.308Z,17.53
2019-04-10T12:29:42.606Z,16.68
2019-04-10T12:30:41.885Z,15.85
2019-04-10T12:31:41.979Z,15.59
2019-04-10T12:32:42.985Z,15.81
2019-04-10T12:33:42.430Z,16.62
2019-04-10T12:34:42.465Z,17.51
2019-04-10T12:35:42.353Z,16.90
2019-04-10T12:36:42.711Z,17.73
2019-04-10T12:37:41.840Z,17.07
2019-04-10T12:38:41.804Z,16.00
2019-04-10T12:39:41.795Z,14.91
2019-04-10T12:40:42.599Z,14.67
2019-04-10T12:41:41.769Z,15.21
2019-04-10T12:42:41.793Z,15.78
2019-04-10T12:43:41.758Z,16.38
2019-04-10T12:44:42.749Z,17.03
2019-04-10T12:45:41.736Z,17.35
2019-04-10T12:46:41.726Z,17.66
2019-04-10T12:47:42.035Z,17.03
2019-04-10T12:48:41.709Z,16.92
2019-04-10T12:49:41.680Z,16.07
2019-04-10T12:50:41.669Z,16.49
2019-04-10T12:51:41.701Z,16.40
2019-04-10T12:52:42.694Z,15.84
2019-04-10T12:53:41.677Z,16.98
2019-04-10T12:54:42.717Z,16.71
2019-04-10T12:55:41.850Z,15.85
2019-04-10T12:56:42.141Z,16.40
2019-04-10T12:57:41.708Z,17.54
2019-04-10T12:58:42.614Z,17.78
2019-04-10T12:59:41.762Z,18.68
2019-04-10T13:00:42.878Z,17.99
2019-04-10T13:01:41.642Z,17.07
2019-04-10T13:02:42.666Z,15.02
2019-04-10T13:03:41.557Z,14.53
2019-04-10T13:04:42.835Z,14.72
2019-04-10T13:05:41.520Z,15.33
2019-04-10T13:06:42.278Z,15.31
2019-04-10T13:07:41.546Z,16.23
2019-04-10T13:08:55.911Z,16.37
2019-04-10T13:09:42.481Z,17.32
2019-04-10T13:10:41.470Z,17.51
2019-04-10T13:11:42.665Z,17.43